Tiempo atmosférico en la estación meteorológica de Irún, Gipuzkoa (120 m.)



Fecha
DESCASC
Temp. máxima en grados centígrados (hora)
DESCASC
Temp. mínima en grados centígrados (hora)
DESCASC
Temp. media en grados centígrados
DESCASC
Racha de viento máxima en m/sg (hora)
DESCASC
Velocidad máxima media en intervalos de 10 minutos(hora)
DESCASC
Precipitaciones diarias en mm
DESCASC
Precipitaciones de 00:00 a 06:00 en mm
DESCASC
Precipitaciones de 06:00 a 12:00 en mm
DESCASC
Precipitaciones de 12:00 a 18:00 en mm
DESCASC
Precipitaciones de 18:00 a 24:00 en mm
DESCASC
25-04-2019 19.4 (16:50) 10.7 (06:00) 15 13.89 (15:50) 5.56 (17:10) 2.8 2.6 0.2 0 0
24-04-2019 16.9 (17:40) 9.5 (01:40) 13.2 20.28 (11:50) 6.67 (11:50) 4.4 0.2 0.2 0 4
23-04-2019 20.6 (14:30) 10.5 (23:40) 15.6 9.72 (15:00) 3.61 (01:50) 4.8 0 0 0.8 4
22-04-2019 19.9 (19:30) 11 (00:00) 15.4 6.39 (20:00) 2.22 (01:00) 0 0 0 0 0
21-04-2019 16.5 (15:40) 9.7 (00:00) 13.1 5 (00:30) 2.5 (00:20) 0 0 0 0 0
20-04-2019 20.9 (16:30) 12 (00:00) 16.4 7.22 (23:10) 3.89 (23:20) 0 0 0 0 0
19-04-2019 19.3 (18:00) 12 (00:00) 15.6 5.28 (04:20) 2.5 (04:20) 0 0 0 0 0
18-04-2019 19.8 (06:30) 13.8 (00:00) 16.8 8.61 (06:20) 3.33 (10:00) 0 0 0 0 0
17-04-2019 23.8 (18:00) 12.5 (00:00) 18.1 11.94 (14:50) 5 (14:50) 0 0 0 0 0
16-04-2019 17.8 (17:10) 10.1 (00:00) 13.9 6.39 (00:20) 3.61 (00:20) 1.6 1.6 0 0 0
15-04-2019 24.8 (17:30) 10.9 (00:00) 17.8 16.11 (18:00) 5.83 (18:20) 24 0 0 0 24
14-04-2019 16.6 (18:50) 10.2 (00:00) 13.4 4.17 (16:10) 2.22 (16:10) 0 0 0 0 0
13-04-2019 17.9 (16:00) 5.3 (00:00) 11.6 4.72 (17:20) 2.22 (12:50) 0 0 0 0 0
12-04-2019 15.2 (15:00) 8.8 (00:00) 12 6.67 (15:20) 3.61 (14:00) 0 0 0 0 0
11-04-2019 13 (17:10) 9.7 (00:00) 11.3 8.61 (18:50) 3.61 (11:10) 2 0 2 0 0
10-04-2019 15.1 (16:00) 8.5 (00:00) 11.8 7.5 (18:50) 3.06 (08:10) 6.2 0 6.2 0 0
09-04-2019 17.9 (13:30) 7.6 (00:00) 12.7 8.61 (18:20) 3.61 (19:10) 0.8 0 0 0 0.8
08-04-2019 14.9 (16:30) 9.3 (00:00) 12.1 6.67 (14:30) 2.78 (11:20) 2.2 0 1 1.2 0
07-04-2019 14.1 (17:00) 7.3 (00:00) 10.7 9.17 (11:50) 3.89 (11:50) 5.4 0.6 2 2.8 0
06-04-2019 17.2 (17:30) 6.7 (00:00) 12 10.28 (15:00) 5.28 (22:10) 4 2 0 0 2
05-04-2019 14.4 (15:10) 7.1 (00:00) 10.7 11.39 (17:30) 5.28 (17:30) 9.4 0 0 0 9.4
04-04-2019 14 (17:00) 3.5 (00:00) 8.8 13.61 (03:40) 6.39 (03:40) 4.4 2.8 1.6 0 0
03-04-2019 9.5 (00:00) 3.8 (00:00) 6.6 14.72 (17:50) 6.39 (21:40) 23.4 3.6 10 5.6 4.2
02-04-2019 15.9 (14:10) 9.5 (00:00) 12.7 7.22 (13:00) 3.06 (10:30) 3 0.2 0 0 2.8
01-04-2019 15.8 (16:10) 10.2 (00:00) 13 3.89 (16:40) 1.67 (16:20) 4 2 2 0 0
31-03-2019 19.4 (13:00) 10 (00:00) 14.7 4.44 (13:30) 2.5 (13:20) 0 0 0 0 0
30-03-2019 22.5 (14:20) 13.5 (00:00) 18 9.44 (05:10) 3.61 (05:30) 0 0 0 0 0
29-03-2019 22.6 (16:00) 5.9 (00:00) 14.3 8.61 (22:40) 3.33 (15:20) 0 0 0 0 0
28-03-2019 15.6 (14:10) 9 (00:00) 12.3 7.78 (09:30) 3.61 (09:00) 0 0 0 0 0
27-03-2019 13.9 (13:50) 5 (00:00) 9.4 7.22 (22:10) 3.89 (23:40) 0 0 0 0 0

Gráficas

Temp. máximas Temp. mínimas Temp. medias Precipitaciones Rachas de viento máximas Velocidades máximas media en intervalos de 10 minutos

Datos horarios

Fecha y hora oficial Temperatura (ºC) Velocidad del viento (km/h) Dirección del viento Racha (km/h) Dirección de racha Precipitación (mm) Presión (hPa) Tendencia (hPa) Humedad (%)
2019-04-25 23:00:00 12.6 8 Oeste 44 Noroeste 0 -- -- 66
2019-04-25 22:00:00 15.3 9 Sudoeste 35 Sudoeste 0 -- -- 43
2019-04-25 21:00:00 15.6 13 Sudoeste 35 Sudoeste 0 -- -- 41
2019-04-25 20:00:00 17.4 9 Sudoeste 33 Oeste 0 -- -- 40
2019-04-25 19:00:00 18.2 12 Sudoeste 33 Oeste 0 -- -- 36
2019-04-25 18:00:00 17.8 13 Sudoeste 44 Oeste 0 -- -- 35
2019-04-25 17:00:00 19.3 16 Oeste 46 Sudoeste 0 -- -- 32
2019-04-25 16:00:00 18.9 20 Sudoeste 50 Oeste 0 -- -- 34
2019-04-25 15:00:00 17.7 11 Sudoeste 45 Oeste 0 -- -- 39
2019-04-25 14:00:00 16.7 18 Sudoeste 40 Oeste 0 -- -- 42
2019-04-25 13:00:00 15.7 14 Sudoeste 35 Sur 0 -- -- 45
2019-04-25 12:00:00 16.4 12 Sudoeste 37 Sudoeste 0 -- -- 47
2019-04-25 11:00:00 14.1 11 Sudoeste 34 Oeste 0 -- -- 49
2019-04-25 10:00:00 13.4 9 Sudoeste 31 Oeste 0 -- -- 51
2019-04-25 09:00:00 12.6 7 Oeste 25 Sudoeste 0 -- -- 56
2019-04-25 08:00:00 11.5 9 Sudoeste 24 Oeste 0 -- -- 59
2019-04-25 07:00:00 11.3 8 Sudoeste 23 Sudoeste 0.2 -- -- 65
2019-04-25 06:00:00 10.7 5 Oeste 20 Sudoeste 0 -- -- 76
2019-04-25 05:00:00 11.2 8 Oeste 22 Oeste 0.4 -- -- 82
2019-04-25 04:00:00 11.2 7 Sudoeste 19 Sudoeste 1.8 -- -- 91
2019-04-25 03:00:00 12 6 Sudoeste 14 Oeste 0.4 -- -- 85
2019-04-25 02:00:00 14.1 5 Sudoeste 20 Oeste 0 -- -- 68
2019-04-25 01:00:00 14.5 5 Sur 24 Sur 0 -- -- 61
2019-04-25 00:00:00 14 6 Sur 24 Sur 0 -- -- 64
2019-04-24 23:00:00 14.2 5 Sudoeste 30 Oeste 0 -- -- 64
2019-04-24 22:00:00 14.4 13 Oeste 61 Sur 0.8 -- -- 62
2019-04-24 21:00:00 12.2 8 Sudoeste 38 Sudoeste 3.2 -- -- 85
2019-04-24 20:00:00 15.6 10 Sur 48 Sur 0 -- -- 63
2019-04-24 19:00:00 16.2 15 Sur 42 Sur 0 -- -- 53
2019-04-24 18:00:00 16.5 21 Sur 61 Sudeste 0 -- -- 51
2019-04-24 17:00:00 15.8 13 Sur 60 Sur 0 -- -- 52
2019-04-24 16:00:00 16 21 Sudeste 61 Sudeste 0 -- -- 50
2019-04-24 15:00:00 15.7 21 Sur 54 Sur 0 -- -- 48
2019-04-24 14:00:00 14.7 22 Sudeste 59 Sur 0 -- -- 51
2019-04-24 13:00:00 12.6 17 Sudeste 48 Sur 0 -- -- 55
2019-04-24 12:00:00 12.9 17 Sudeste 73 Sudoeste 0.2 -- -- 50
2019-04-24 11:00:00 12.9 14 Sur 46 Sur 0 -- -- 51
2019-04-24 10:00:00 12.8 6 Sudeste 23 Sudoeste 0 -- -- 57
2019-04-24 09:00:00 11.2 3 Sudeste 10 Sur 0 -- -- 65
2019-04-24 08:00:00 10.2 5 Sur 12 Sudoeste 0 -- -- 61
2019-04-24 07:00:00 9.8 4 Sur 13 Sudoeste 0 -- -- 67
2019-04-24 06:00:00 9.9 6 Sudoeste 16 Sudoeste 0 -- -- 73
2019-04-24 05:00:00 10.1 8 Sudoeste 19 Oeste 0 -- -- 74
2019-04-24 04:00:00 10 6 Sudoeste 15 Sudoeste 0 -- -- 83
2019-04-24 03:00:00 9.8 4 Sudoeste 14 Sur 0 -- -- 83
2019-04-24 02:00:00 9.6 6 Sudoeste 22 Sudoeste 0 -- -- 87
2019-04-24 01:00:00 9.8 13 Sudoeste 29 Oeste 0.2 -- -- 90
2019-04-24 00:00:00 10.8 6 Oeste 25 Sudoeste 0.2 -- -- 87
2019-04-23 23:00:00 10.8 2 Sudoeste 7 Sudoeste 0 -- -- 89
2019-04-23 22:00:00 11.2 5 Noroeste 24 Sudoeste 0 -- -- 86
2019-04-23 21:00:00 11.8 13 Sudoeste 30 Oeste 2.8 -- -- 85
2019-04-23 20:00:00 12.6 3 Sur 12 Oeste 1 -- -- 90
2019-04-23 19:00:00 13.1 3 Noroeste 12 Sudoeste 0 -- -- 88
2019-04-23 18:00:00 12.4 5 Sudoeste 22 Sur 0.4 -- -- 89
2019-04-23 17:00:00 14.2 10 Sudoeste 32 Sur 0.4 -- -- 83
2019-04-23 16:00:00 16.6 5 Sur 30 Sur 0 -- -- 63
2019-04-23 15:00:00 19.9 10 Sur 35 Sur 0 -- -- 48
2019-04-23 14:00:00 19.9 3 Sudoeste 13 Sudeste 0 -- -- 51
2019-04-23 13:00:00 19.3 0 Calma 11 Noroeste 0 -- -- 56
2019-04-23 12:00:00 19.6 7 Sur 22 Sur 0 -- -- 51
2019-04-23 11:00:00 17.6 5 Noroeste 8 Noroeste 0 -- -- 65
2019-04-23 10:00:00 16.9 0 Calma 6 Nordeste 0 -- -- 67
2019-04-23 09:00:00 16.2 0 Calma 10 Nordeste 0 -- -- 62
2019-04-23 08:00:00 15.9 3 Noroeste 9 Noroeste 0 -- -- 59
2019-04-23 07:00:00 16.2 4 Sur 12 Sur 0 -- -- 57
2019-04-23 06:00:00 15.7 4 Oeste 13 Sudeste 0 -- -- 59
2019-04-23 05:00:00 16.5 3 Este 10 Sur 0 -- -- 56
2019-04-23 04:00:00 16.8 3 Sudeste 32 Sur 0 -- -- 55
2019-04-23 03:00:00 17.4 10 Sudeste 32 Sur 0 -- -- 52
2019-04-23 02:00:00 17.8 12 Sur 32 Sur 0 -- -- 50
2019-04-23 01:00:00 17.8 6 Sur 22 Sur 0 -- -- 50
2019-04-23 00:00:00 17.9 6 Sur 22 Sur 0 -- -- 50
2019-04-22 23:00:00 18.6 3 Nordeste 15 Sudeste 0 -- -- 47
2019-04-22 22:00:00 19 4 Sur 11 Sur 0 -- -- 46
2019-04-22 21:00:00 19.1 5 Sudeste 17 Sur 0 -- -- 46
2019-04-22 20:00:00 19.8 7 Sudeste 23 Sur 0 -- -- 47
2019-04-22 19:00:00 19.4 0 Calma 9 Noroeste 0 -- -- 68
2019-04-22 18:00:00 18.6 5 Noroeste 9 Norte 0 -- -- 74
2019-04-22 17:00:00 17.5 4 Norte 11 Noroeste 0 -- -- 74
2019-04-22 16:00:00 16.3 5 Norte 16 Norte 0 -- -- 76
2019-04-22 15:00:00 17.8 6 Nordeste 17 Norte 0 -- -- 73
2019-04-22 14:00:00 18.4 3 Este 13 Nordeste 0 -- -- 70
2019-04-22 13:00:00 16.6 6 Nordeste 14 Norte 0 -- -- 71
2019-04-22 12:00:00 16.6 5 Nordeste 11 Nordeste 0 -- -- 72
2019-04-22 11:00:00 14.5 2 Sudoeste 7 Oeste 0 -- -- 78
2019-04-22 10:00:00 12.3 3 Oeste 5 Oeste 0 -- -- 88
2019-04-22 09:00:00 11.1 3 Oeste 5 Oeste 0 -- -- 90
2019-04-22 08:00:00 11 3 Oeste 8 Sudoeste 0 -- -- 88
2019-04-22 07:00:00 12 5 Sudoeste 10 Sudoeste 0 -- -- 86
2019-04-22 06:00:00 11.9 3 Sudoeste 13 Sudoeste 0 -- -- 87
2019-04-22 05:00:00 12.4 4 Sudoeste 15 Sur 0 -- -- 86
2019-04-22 04:00:00 12.4 7 Sudoeste 13 Sudoeste 0 -- -- 86
2019-04-22 03:00:00 12.4 6 Sudoeste 14 Sudoeste 0 -- -- 87
2019-04-22 02:00:00 12.5 8 Sudoeste 15 Sudoeste 0 -- -- 87
2019-04-22 01:00:00 12.5 8 Sudoeste 15 Sudoeste 0 -- -- 87
2019-04-22 00:00:00 12.7 6 Sudoeste 16 Oeste 0 -- -- 86
2019-04-21 23:00:00 12.9 4 Oeste 8 Oeste 0 -- -- 86
2019-04-21 22:00:00 13.2 2 Sudoeste 4 Sudoeste 0 -- -- 85
2019-04-21 21:00:00 13.7 2 Sudoeste 4 Oeste 0 -- -- 83
2019-04-21 20:00:00 14.2 0 Calma 6 Sudeste 0 -- -- 82
2019-04-21 19:00:00 14.2 0 Calma 8 Nordeste 0 -- -- 81
2019-04-21 18:00:00 14.2 0 Calma 12 Nordeste 0 -- -- 77
2019-04-21 17:00:00 15.4 3 Este 9 Este 0 -- -- 72
2019-04-21 16:00:00 16.2 0 Calma 10 Norte 0 -- -- 70
2019-04-21 15:00:00 16 4 Norte 11 Este 0 -- -- 71
2019-04-21 14:00:00 15.7 3 Norte 9 Nordeste 0 -- -- 73
2019-04-21 13:00:00 14.9 3 Norte 9 Norte 0 -- -- 74
2019-04-21 12:00:00 14.3 2 Oeste 5 Noroeste 0 -- -- 77
2019-04-21 11:00:00 12.7 0 Calma 6 Oeste 0 -- -- 82
2019-04-21 10:00:00 11.6 4 Oeste 5 Oeste 0 -- -- 84
2019-04-21 09:00:00 11 0 Calma 4 Oeste 0 -- -- 84
2019-04-21 08:00:00 10 5 Sudoeste 9 Oeste 0 -- -- 81
2019-04-21 07:00:00 10.2 4 Oeste 11 Oeste 0 -- -- 77
2019-04-21 06:00:00 10 0 Calma 4 Nordeste 0 -- -- 77
2019-04-21 05:00:00 10.3 0 Calma 5 Este 0 -- -- 75
2019-04-21 04:00:00 11 3 Noroeste 10 Sudoeste 0 -- -- 71
2019-04-21 03:00:00 13.3 5 Sudoeste 14 Sudoeste 0 -- -- 62
2019-04-21 02:00:00 12.1 4 Oeste 9 Sudoeste 0 -- -- 68
2019-04-21 01:00:00 12.8 3 Nordeste 18 Sudoeste 0 -- -- 70
2019-04-21 00:00:00 13.6 8 Sudoeste 26 Sudoeste 0 -- -- 61
2019-04-20 23:00:00 13.6 11 Sudoeste 22 Sudoeste 0 -- -- 71
2019-04-20 22:00:00 13.5 8 Sudoeste 23 Sudoeste 0 -- -- 76
2019-04-20 21:00:00 13.7 9 Sudoeste 23 Oeste 0 -- -- 77
2019-04-20 20:00:00 14.5 12 Oeste 21 Oeste 0 -- -- 75
2019-04-20 19:00:00 16.6 11 Oeste 22 Oeste 0 -- -- 63
2019-04-20 18:00:00 19.6 3 Norte 12 Nordeste 0 -- -- 56
2019-04-20 17:00:00 20.2 3 Nordeste 13 Norte 0 -- -- 54
2019-04-20 16:00:00 20.4 3 Este 12 Noroeste 0 -- -- 51
2019-04-20 15:00:00 18.9 6 Oeste 19 Oeste 0 -- -- 51
2019-04-20 14:00:00 18.3 9 Noroeste 24 Oeste 0 -- -- 61
2019-04-20 13:00:00 17.3 9 Oeste 24 Sudoeste 0 -- -- 68
2019-04-20 12:00:00 16.5 9 Oeste 22 Oeste 0 -- -- 76
2019-04-20 11:00:00 14.9 11 Oeste 26 Sudoeste 0 -- -- 78
2019-04-20 10:00:00 14.1 8 Sudoeste 25 Oeste 0 -- -- 78
2019-04-20 09:00:00 13.2 12 Sudoeste 24 Sudoeste 0 -- -- 81
2019-04-20 08:00:00 12.7 9 Sudoeste 23 Oeste 0 -- -- 83
2019-04-20 07:00:00 12.7 9 Sudoeste 22 Sudoeste 0 -- -- 83
2019-04-20 06:00:00 12.5 7 Sudoeste 17 Sudoeste 0 -- -- 83
2019-04-20 05:00:00 12 4 Oeste 8 Sudoeste 0 -- -- 85
2019-04-20 04:00:00 12.5 3 Sudoeste 8 Oeste 0 -- -- 82
2019-04-20 03:00:00 12.7 4 Sudoeste 10 Oeste 0 -- -- 82
2019-04-20 02:00:00 13.2 5 Oeste 10 Sudoeste 0 -- -- 80
2019-04-20 01:00:00 13.9 4 Sudoeste 10 Sur 0 -- -- 78
2019-04-20 00:00:00 13.9 3 Sudoeste 7 Sudoeste 0 -- -- 84
2019-04-19 23:00:00 14.5 0 Calma 5 Este 0 -- -- 77
2019-04-19 22:00:00 14.9 0 Calma 8 Nordeste 0 -- -- 71
2019-04-19 21:00:00 16.2 0 Calma 4 Nordeste 0 -- -- 65
2019-04-19 20:00:00 17.6 0 Calma 8 Este 0 -- -- 63
2019-04-19 19:00:00 17.8 3 Este 10 Norte 0 -- -- 62
2019-04-19 18:00:00 19.3 4 Norte 8 Norte 0 -- -- 63
2019-04-19 17:00:00 18 4 Norte 14 Norte 0 -- -- 62
2019-04-19 16:00:00 17.9 5 Norte 14 Norte 0 -- -- 66
2019-04-19 15:00:00 18 5 Norte 12 Nordeste 0 -- -- 67
2019-04-19 14:00:00 17.7 6 Nordeste 15 Norte 0 -- -- 66
2019-04-19 13:00:00 18.9 3 Nordeste 7 Nordeste 0 -- -- 64
2019-04-19 12:00:00 16.8 0 Calma 6 Oeste 0 -- -- 73
2019-04-19 11:00:00 14.1 0 Calma 6 Oeste 0 -- -- 85
2019-04-19 10:00:00 12.8 3 Oeste 6 Sur 0 -- -- 90
2019-04-19 09:00:00 12.3 4 Oeste 5 Sudoeste 0 -- -- 91
2019-04-19 08:00:00 12 2 Sur 5 Sudeste 0 -- -- 91
2019-04-19 07:00:00 12.2 0 Calma 10 Sudoeste 0 -- -- 91
2019-04-19 06:00:00 12.5 2 Sur 12 Sudoeste 0 -- -- 90
2019-04-19 05:00:00 12.7 4 Sudoeste 19 Oeste 0 -- -- 89
2019-04-19 04:00:00 12.7 6 Sudoeste 15 Sudoeste 0 -- -- 87
2019-04-19 03:00:00 13 2 Sur 14 Sudoeste 0 -- -- 85
2019-04-19 02:00:00 13.5 8 Sudoeste 17 Sudoeste 0 -- -- 82
2019-04-19 01:00:00 13.8 6 Sudoeste 14 Sudoeste 0 -- -- 80
2019-04-19 00:00:00 13.8 5 Oeste 10 Oeste 0 -- -- 77
2019-04-18 23:00:00 14.3 0 Calma 6 Sur 0 -- -- 74
2019-04-18 22:00:00 14.4 0 Calma 4 Este 0 -- -- 77
2019-04-18 21:00:00 14.8 0 Calma 4 Nordeste 0 -- -- 74
2019-04-18 20:00:00 15.2 0 Calma 7 Este 0 -- -- 73
2019-04-18 19:00:00 15.3 3 Este 17 Nordeste 0 -- -- 75
2019-04-18 18:00:00 15.6 6 Nordeste 18 Nordeste 0 -- -- 73
2019-04-18 17:00:00 16.4 5 Norte 19 Nordeste 0 -- -- 70
2019-04-18 16:00:00 17.5 5 Norte 16 Nordeste 0 -- -- 66
2019-04-18 15:00:00 17.7 3 Este 13 Este 0 -- -- 68
2019-04-18 14:00:00 15.9 0 Calma 10 Norte 0 -- -- 79
2019-04-18 13:00:00 15.5 4 Este 10 Nordeste 0 -- -- 76
2019-04-18 12:00:00 17.1 5 Noroeste 15 Sudoeste 0 -- -- 63
2019-04-18 11:00:00 17.3 6 Sudoeste 29 Oeste 0 -- -- 53
2019-04-18 10:00:00 17.8 12 Sudoeste 28 Sudoeste 0 -- -- 48
2019-04-18 09:00:00 17.5 6 Noroeste 24 Sudeste 0 -- -- 51
2019-04-18 08:00:00 19.3 9 Sudeste 26 Este 0 -- -- 41
2019-04-18 07:00:00 19.4 4 Este 31 Sudoeste 0 -- -- 43
2019-04-18 06:00:00 18.9 8 Norte 19 Sudoeste 0 -- -- 46
2019-04-18 05:00:00 18.1 4 Norte 14 Sur 0 -- -- 53
2019-04-18 04:00:00 17.7 3 Noroeste 5 Oeste 0 -- -- 56
2019-04-18 03:00:00 17.7 3 Sur 8 Oeste 0 -- -- 58
2019-04-18 02:00:00 18 5 Norte 18 Noroeste 0 -- -- 58
2019-04-18 01:00:00 17.9 7 Oeste 14 Oeste 0 -- -- 67
2019-04-18 00:00:00 17.8 3 Sur 13 Oeste 0 -- -- 70
2019-04-17 23:00:00 17.3 7 Oeste 12 Nordeste 0 -- -- 75
2019-04-17 22:00:00 18.1 2 Este 11 Oeste 0 -- -- 66
2019-04-17 21:00:00 18.9 3 Oeste 11 Oeste 0 -- -- 69
2019-04-17 20:00:00 20.9 4 Nordeste 17 Sur 0 -- -- 61
2019-04-17 19:00:00 23.2 6 Sudeste 16 Sudeste 0 -- -- 41
2019-04-17 18:00:00 23.8 4 Sudeste 18 Sur 0 -- -- 41
2019-04-17 17:00:00 22.5 6 Sudeste 29 Sur 0 -- -- 41
2019-04-17 16:00:00 22.9 3 Noroeste 32 Sudoeste 0 -- -- 40
2019-04-17 15:00:00 22 12 Sudeste 43 Sur 0 -- -- 43
2019-04-17 14:00:00 21 9 Sudeste 41 Sudeste 0 -- -- 43
2019-04-17 13:00:00 20.6 10 Sur 36 Sudeste 0 -- -- 44
2019-04-17 12:00:00 19.2 6 Sudeste 31 Sur 0 -- -- 47
2019-04-17 11:00:00 18.7 15 Sudeste 42 Sur 0 -- -- 46
2019-04-17 10:00:00 17.5 8 Sudeste 26 Sur 0 -- -- 50
2019-04-17 09:00:00 17.7 6 Sudeste 33 Sur 0 -- -- 50
2019-04-17 08:00:00 16.5 4 Nordeste 39 Sur 0 -- -- 52
2019-04-17 07:00:00 17.1 9 Sur 31 Sur 0 -- -- 48
2019-04-17 06:00:00 16.3 5 Norte 21 Sudoeste 0 -- -- 52
2019-04-17 05:00:00 16.1 4 Sudoeste 13 Sudoeste 0 -- -- 57
2019-04-17 04:00:00 15 4 Sudeste 12 Sur 0 -- -- 60
2019-04-17 03:00:00 12.9 5 Oeste 10 Oeste 0 -- -- 77
2019-04-17 02:00:00 12.7 5 Oeste 8 Este 0 -- -- 77
2019-04-17 01:00:00 12.6 3 Sudeste 10 Este 0 -- -- 79
2019-04-17 00:00:00 13.5 4 Este 11 Nordeste 0 -- -- 76
2019-04-16 23:00:00 14.1 3 Nordeste 9 Norte 0 -- -- 73
2019-04-16 22:00:00 15 4 Nordeste 10 Nordeste 0 -- -- 70
2019-04-16 21:00:00 15.6 4 Nordeste 13 Nordeste 0 -- -- 67
2019-04-16 20:00:00 16.1 2 Este 18 Nordeste 0 -- -- 72
2019-04-16 19:00:00 17.6 5 Nordeste 13 Nordeste 0 -- -- 69
2019-04-16 18:00:00 17.6 5 Nordeste 19 Norte 0 -- -- 70
2019-04-16 17:00:00 17.7 7 Nordeste 17 Norte 0 -- -- 69
2019-04-16 16:00:00 17.5 8 Norte 19 Norte 0 -- -- 69
2019-04-16 15:00:00 17.1 8 Norte 20 Norte 0 -- -- 69
2019-04-16 14:00:00 16.5 9 Norte 18 Nordeste 0 -- -- 72
2019-04-16 13:00:00 15.6 8 Norte 16 Norte 0 -- -- 72
2019-04-16 12:00:00 14.8 6 Norte 14 Norte 0 -- -- 73
2019-04-16 11:00:00 13.5 3 Nordeste 8 Nordeste 0 -- -- 81
2019-04-16 10:00:00 12.3 4 Oeste 9 Sudoeste 0 -- -- 82
2019-04-16 09:00:00 11.3 5 Sudoeste 14 Sudoeste 0 -- -- 85
2019-04-16 08:00:00 10.2 4 Sur 14 Sudoeste 0 -- -- 91
2019-04-16 07:00:00 10.4 5 Sudoeste 14 Sudoeste 0 -- -- 94
2019-04-16 06:00:00 10.7 5 Noroeste 18 Sudoeste 0.2 -- -- 92
2019-04-16 05:00:00 11.2 6 Sudoeste 21 Sudoeste 1 -- -- 92
2019-04-16 04:00:00 11.9 11 Sudoeste 23 Sudoeste 0 -- -- 86
2019-04-16 03:00:00 11.8 6 Sudoeste 19 Sudoeste 0 -- -- 88
2019-04-16 02:00:00 11.9 8 Sudoeste 22 Sudoeste 0 -- -- 89
2019-04-16 01:00:00 11.9 8 Sudoeste 23 Sudoeste 0.4 -- -- 88
2019-04-16 00:00:00 12 11 Sudoeste 24 Oeste 0.8 -- -- 91
2019-04-15 23:00:00 12.1 8 Sudoeste 23 Sudoeste 0.8 -- -- 91
2019-04-15 22:00:00 12.3 12 Sudoeste 24 Sudoeste 3 -- -- 93
2019-04-15 21:00:00 12.6 11 Sudoeste 51 Oeste 4 -- -- 93
2019-04-15 20:00:00 13.1 13 Oeste 35 Sudoeste 5.2 -- -- 94
2019-04-15 19:00:00 14.5 11 Oeste 51 Noroeste 10.2 -- -- 92
2019-04-15 18:00:00 16.9 13 Oeste 58 Oeste 0 -- -- 76
2019-04-15 17:00:00 24.1 6 Sudeste 23 Sudeste 0 -- -- 46
2019-04-15 16:00:00 23.5 2 Sur 8 Noroeste 0 -- -- 52
2019-04-15 15:00:00 22.5 2 Este 18 Oeste 0 -- -- 55
2019-04-15 14:00:00 22.2 8 Sudoeste 44 Sur 0 -- -- 51
2019-04-15 13:00:00 23.5 17 Sur 38 Sur 0 -- -- 46
2019-04-15 12:00:00 22.1 8 Sudeste 24 Sur 0 -- -- 50
2019-04-15 11:00:00 19.2 6 Sudoeste 15 Sur 0 -- -- 66
2019-04-15 10:00:00 16.2 4 Oeste 9 Oeste 0 -- -- 74
2019-04-15 09:00:00 14.1 4 Oeste 7 Oeste 0 -- -- 83
2019-04-15 08:00:00 11.3 5 Oeste 8 Oeste 0 -- -- 92
2019-04-15 07:00:00 11.3 0 Calma 8 Oeste 0 -- -- 91
2019-04-15 06:00:00 11.3 2 Sudeste 7 Oeste 0 -- -- 91
2019-04-15 05:00:00 11.3 2 Sudoeste 9 Oeste 0 -- -- 91
2019-04-15 04:00:00 11.1 4 Oeste 12 Oeste 0 -- -- 90
2019-04-15 03:00:00 11.8 2 Nordeste 5 Este 0 -- -- 85
2019-04-15 02:00:00 11.2 3 Oeste 10 Oeste 0 -- -- 89
2019-04-15 01:00:00 11.6 4 Oeste 6 Noroeste 0 -- -- 88
2019-04-15 00:00:00 11.9 0 Calma 6 Oeste 0 -- -- 85
2019-04-14 23:00:00 12.2 3 Oeste 7 Oeste 0 -- -- 87
2019-04-14 22:00:00 12.8 3 Noroeste 6 Oeste 0 -- -- 82
2019-04-14 21:00:00 14.5 5 Noroeste 6 Noroeste 0 -- -- 74
2019-04-14 20:00:00 16.2 0 Calma 3 Norte 0 -- -- 64
2019-04-14 19:00:00 16.6 4 Noroeste 6 Noroeste 0 -- -- 63
2019-04-14 18:00:00 15.8 0 Calma 9 Norte 0 -- -- 64
2019-04-14 17:00:00 14.3 3 Nordeste 15 Nordeste 0 -- -- 68
2019-04-14 16:00:00 14 6 Nordeste 15 Nordeste 0 -- -- 71
2019-04-14 15:00:00 16.5 6 Norte 14 Norte 0 -- -- 71
2019-04-14 14:00:00 15.3 6 Norte 15 Norte 0 -- -- 71
2019-04-14 13:00:00 14.4 6 Nordeste 11 Nordeste 0 -- -- 73
2019-04-14 12:00:00 15.1 3 Noroeste 8 Noroeste 0 -- -- 60
2019-04-14 11:00:00 13.6 0 Calma 7 Oeste 0 -- -- 74
2019-04-14 10:00:00 12.3 0 Calma 9 Oeste 0 -- -- 82
2019-04-14 09:00:00 10.7 6 Oeste 8 Oeste 0 -- -- 83
2019-04-14 08:00:00 10.2 2 Oeste 7 Oeste 0 -- -- 85
2019-04-14 07:00:00 10.4 3 Norte 7 Noroeste 0 -- -- 81
2019-04-14 06:00:00 10.5 3 Norte 5 Noroeste 0 -- -- 81
2019-04-14 05:00:00 10.4 0 Calma 5 Oeste 0 -- -- 81
2019-04-14 04:00:00 10.3 2 Sudeste 6 Oeste 0 -- -- 84
2019-04-14 03:00:00 10.4 0 Calma 8 Oeste 0 -- -- 84
2019-04-14 02:00:00 10.5 0 Calma 10 Sudoeste 0 -- -- 85
2019-04-14 01:00:00 10.9 5 Oeste 12 Oeste 0 -- -- 88
2019-04-14 00:00:00 11.2 4 Oeste 9 Oeste 0 -- -- 84
2019-04-13 23:00:00 11.7 5 Sudoeste 11 Sudoeste 0 -- -- 78
2019-04-13 22:00:00 12.2 5 Oeste 7 Oeste 0 -- -- 78
2019-04-13 21:00:00 13.3 5 Oeste 6 Oeste 0 -- -- 74
2019-04-13 20:00:00 15.7 4 Noroeste 11 Noroeste 0 -- -- 64
2019-04-13 19:00:00 17 4 Norte 11 Nordeste 0 -- -- 57
2019-04-13 18:00:00 16.9 4 Nordeste 17 Norte 0 -- -- 59
2019-04-13 17:00:00 17.2 8 Norte 15 Nordeste 0 -- -- 58
2019-04-13 16:00:00 17.9 6 Norte 17 Nordeste 0 -- -- 56
2019-04-13 15:00:00 16.5 8 Norte 16 Norte 0 -- -- 59
2019-04-13 14:00:00 15.9 7 Norte 15 Norte 0 -- -- 60
2019-04-13 13:00:00 14.7 7 Norte 15 Norte 0 -- -- 66
2019-04-13 12:00:00 13.2 6 Norte 14 Norte 0 -- -- 65
2019-04-13 11:00:00 10.5 4 Nordeste 8 Nordeste 0 -- -- 70
2019-04-13 10:00:00 7.5 3 Noroeste 4 Oeste 0 -- -- 80
2019-04-13 09:00:00 5.8 0 Calma 2 Sudoeste 0 -- -- 86
2019-04-13 08:00:00 5.4 2 Noroeste 7 Oeste 0 -- -- 85
2019-04-13 07:00:00 5.8 2 Este 5 Este 0 -- -- 85
2019-04-13 06:00:00 5.8 6 Oeste 9 Oeste 0 -- -- 86
2019-04-13 05:00:00 6.1 0 Calma 5 Oeste 0 -- -- 85
2019-04-13 04:00:00 6.5 2 Sudeste 6 Oeste 0 -- -- 83
2019-04-13 03:00:00 7.2 3 Oeste 6 Oeste 0 -- -- 79
2019-04-13 02:00:00 7.7 0 Calma 3 Noroeste 0 -- -- 78
2019-04-13 01:00:00 8 0 Calma 4 Noroeste 0 -- -- 76
2019-04-13 00:00:00 8.8 0 Calma 4 Sur 0 -- -- 72
2019-04-12 23:00:00 9.2 0 Calma 3 Sudeste 0 -- -- 71
2019-04-12 22:00:00 10 2 Sur 3 Sur 0 -- -- 67
2019-04-12 21:00:00 11 2 Noroeste 9 Norte 0 -- -- 64
2019-04-12 20:00:00 12.8 5 Noroeste 13 Norte 0 -- -- 60
2019-04-12 19:00:00 13.6 7 Norte 15 Noroeste 0 -- -- 58
2019-04-12 18:00:00 13.7 8 Norte 21 Noroeste 0 -- -- 61
2019-04-12 17:00:00 13.5 12 Noroeste 19 Noroeste 0 -- -- 68
2019-04-12 16:00:00 14.2 11 Noroeste 24 Norte 0 -- -- 67
2019-04-12 15:00:00 15.2 11 Noroeste 21 Noroeste 0 -- -- 66
2019-04-12 14:00:00 13.1 13 Noroeste 22 Norte 0 -- -- 69
2019-04-12 13:00:00 13.6 8 Norte 18 Norte 0 -- -- 64
2019-04-12 12:00:00 12.6 6 Noroeste 16 Norte 0 -- -- 70
2019-04-12 11:00:00 12.3 8 Noroeste 18 Oeste 0 -- -- 76
2019-04-12 10:00:00 11.7 8 Noroeste 19 Norte 0 -- -- 79
2019-04-12 09:00:00 10.5 2 Oeste 9 Sur 0 -- -- 84
2019-04-12 08:00:00 10.1 0 Calma 9 Noroeste 0 -- -- 85
2019-04-12 07:00:00 10.3 3 Noroeste 8 Oeste 0 -- -- 86
2019-04-12 06:00:00 10.2 4 Noroeste 8 Sudoeste 0 -- -- 86
2019-04-12 05:00:00 10.2 4 Oeste 11 Noroeste 0 -- -- 85
2019-04-12 04:00:00 10.3 5 Noroeste 12 Noroeste 0 -- -- 87
2019-04-12 03:00:00 10.4 6 Noroeste 13 Noroeste 0 -- -- 87
2019-04-12 02:00:00 10.5 6 Noroeste 14 Noroeste 0 -- -- 87
2019-04-12 01:00:00 10.5 6 Noroeste 14 Norte 0 -- -- 86
2019-04-12 00:00:00 10.6 4 Oeste 14 Oeste 0 -- -- 86
2019-04-11 23:00:00 10.7 4 Noroeste 16 Noroeste 0 -- -- 84
2019-04-11 22:00:00 10.3 6 Noroeste 23 Noroeste 0 -- -- 85
2019-04-11 21:00:00 10.7 6 Oeste 17 Noroeste 0 -- -- 86
2019-04-11 20:00:00 11.4 5 Noroeste 20 Sudoeste 0 -- -- 79
2019-04-11 19:00:00 11.8 10 Noroeste 31 Noroeste 0 -- -- 77
2019-04-11 18:00:00 12.3 9 Noroeste 22 Oeste 0 -- -- 79
2019-04-11 17:00:00 12.5 9 Noroeste 18 Noroeste 0 -- -- 81
2019-04-11 16:00:00 12.5 9 Noroeste 20 Noroeste 0 -- -- 82
2019-04-11 15:00:00 12.2 11 Noroeste 21 Noroeste 0 -- -- 79
2019-04-11 14:00:00 12 8 Oeste 22 Noroeste 0 -- -- 81
2019-04-11 13:00:00 11.9 12 Noroeste 23 Noroeste 0 -- -- 82
2019-04-11 12:00:00 11.4 9 Oeste 27 Oeste 0 -- -- 82
2019-04-11 11:00:00 10.6 8 Noroeste 18 Oeste 0 -- -- 89
2019-04-11 10:00:00 10 6 Oeste 24 Noroeste 0.4 -- -- 90
2019-04-11 09:00:00 9.7 6 Oeste 24 Noroeste 0.6 -- -- 89
2019-04-11 08:00:00 9.9 8 Noroeste 30 Sudoeste 1 -- -- 90
2019-04-11 07:00:00 10.3 6 Noroeste 15 Oeste 0 -- -- 83
2019-04-11 06:00:00 10.2 2 Oeste 12 Norte 0 -- -- 83
2019-04-11 05:00:00 10.1 6 Noroeste 18 Oeste 0 -- -- 82
2019-04-11 04:00:00 10.3 9 Noroeste 18 Noroeste 0 -- -- 83
2019-04-11 03:00:00 10.4 4 Noroeste 18 Noroeste 0 -- -- 85
2019-04-11 02:00:00 10.8 7 Noroeste 17 Noroeste 0 -- -- 86
2019-04-11 01:00:00 10.7 6 Noroeste 16 Norte 0 -- -- 87
2019-04-11 00:00:00 10.9 6 Noroeste 17 Noroeste 0 -- -- 87
2019-04-10 23:00:00 10.9 6 Noroeste 21 Noroeste 0 -- -- 86
2019-04-10 22:00:00 11.5 8 Noroeste 15 Oeste 0 -- -- 86
2019-04-10 21:00:00 11.3 3 Oeste 19 Oeste 0 -- -- 82
2019-04-10 20:00:00 11.5 7 Noroeste 20 Noroeste 0 -- -- 79
2019-04-10 19:00:00 12 10 Noroeste 27 Norte 0 -- -- 81
2019-04-10 18:00:00 12.2 6 Oeste 19 Sudoeste 0 -- -- 78
2019-04-10 17:00:00 12.9 7 Noroeste 17 Noroeste 0 -- -- 77
2019-04-10 16:00:00 15.1 6 Oeste 20 Noroeste 0 -- -- 68
2019-04-10 15:00:00 14.2 8 Noroeste 19 Noroeste 0 -- -- 73
2019-04-10 14:00:00 13.3 5 Sudoeste 17 Sudoeste 0 -- -- 73
2019-04-10 13:00:00 11.7 6 Sudoeste 16 Sudoeste 0 -- -- 81
2019-04-10 12:00:00 9.9 8 Sudoeste 21 Sudoeste 0.2 -- -- 86
2019-04-10 11:00:00 8.9 4 Sudoeste 10 Sur 3.6 -- -- 93
2019-04-10 10:00:00 9.1 4 Sur 15 Sudoeste 2.2 -- -- 90
2019-04-10 09:00:00 9.2 8 Sudoeste 21 Sudoeste 0.2 -- -- 88
2019-04-10 08:00:00 9.6 9 Sudoeste 20 Sudoeste 0 -- -- 81
2019-04-10 07:00:00 9.6 7 Sudoeste 19 Sudoeste 0 -- -- 81
2019-04-10 06:00:00 8.8 5 Oeste 15 Oeste 0 -- -- 89
2019-04-10 05:00:00 8.6 4 Oeste 9 Oeste 0 -- -- 89
2019-04-10 04:00:00 8.8 5 Oeste 9 Oeste 0 -- -- 88
2019-04-10 03:00:00 9.2 4 Oeste 10 Oeste 0 -- -- 86
2019-04-10 02:00:00 10 5 Oeste 14 Sudoeste 0 -- -- 80
2019-04-10 01:00:00 9.7 3 Oeste 9 Sudoeste 0 -- -- 84
2019-04-10 00:00:00 9.7 5 Oeste 23 Oeste 0 -- -- 85
2019-04-09 23:00:00 10.2 13 Sudoeste 24 Sudoeste 0 -- -- 82
2019-04-09 22:00:00 10 9 Sudoeste 27 Sudoeste 0 -- -- 86
2019-04-09 21:00:00 11.1 9 Sudoeste 26 Sudoeste 0 -- -- 86
2019-04-09 20:00:00 11.4 12 Sudoeste 28 Sudoeste 0.2 -- -- 86
2019-04-09 19:00:00 12.4 12 Sudoeste 31 Sudoeste 0.6 -- -- 81
2019-04-09 18:00:00 14.9 8 Noroeste 18 Noroeste 0 -- -- 54
2019-04-09 17:00:00 16.3 6 Norte 16 Noroeste 0 -- -- 54
2019-04-09 16:00:00 17.2 6 Norte 16 Este 0 -- -- 54
2019-04-09 15:00:00 17.1 5 Nordeste 15 Nordeste 0 -- -- 57
2019-04-09 14:00:00 17.2 5 Noroeste 19 Sudoeste 0 -- -- 47
2019-04-09 13:00:00 16.9 9 Oeste 23 Oeste 0 -- -- 47
2019-04-09 12:00:00 15.9 8 Sudoeste 21 Sudoeste 0 -- -- 49
2019-04-09 11:00:00 13.2 4 Noroeste 9 Noroeste 0 -- -- 64
2019-04-09 10:00:00 11 3 Norte 6 Norte 0 -- -- 76
2019-04-09 09:00:00 8.7 2 Sudeste 8 Oeste 0 -- -- 78
2019-04-09 08:00:00 8.7 0 Calma 7 Sudoeste 0 -- -- 75
2019-04-09 07:00:00 8.1 4 Oeste 6 Oeste 0 -- -- 80
2019-04-09 06:00:00 7.8 2 Oeste 6 Oeste 0 -- -- 85
2019-04-09 05:00:00 7.9 0 Calma 3 Sudeste 0 -- -- 88
2019-04-09 04:00:00 8 0 Calma 6 Oeste 0 -- -- 91
2019-04-09 03:00:00 8.2 3 Sudeste 7 Oeste 0 -- -- 91
2019-04-09 02:00:00 8.6 4 Oeste 6 Oeste 0 -- -- 90
2019-04-09 01:00:00 9.1 4 Oeste 6 Oeste 0 -- -- 91
2019-04-09 00:00:00 9.3 0 Calma 6 Oeste 0 -- -- 88
2019-04-08 23:00:00 10 0 Calma 3 Este 0 -- -- 87
2019-04-08 22:00:00 10.5 0 Calma 4 Nordeste 0 -- -- 84
2019-04-08 21:00:00 11.4 0 Calma 8 Este 0 -- -- 80
2019-04-08 20:00:00 13.1 3 Nordeste 9 Nordeste 0 -- -- 72
2019-04-08 19:00:00 13.6 2 Este 12 Noroeste 0 -- -- 70
2019-04-08 18:00:00 14.3 8 Noroeste 17 Oeste 0 -- -- 69
2019-04-08 17:00:00 14.4 6 Oeste 15 Sudoeste 0 -- -- 63
2019-04-08 16:00:00 14.3 8 Oeste 16 Oeste 0 -- -- 72
2019-04-08 15:00:00 12.1 8 Oeste 24 Sudoeste 0.8 -- -- 90
2019-04-08 14:00:00 12.1 8 Oeste 22 Sudoeste 0.2 -- -- 89
2019-04-08 13:00:00 11.7 9 Oeste 23 Oeste 0.2 -- -- 91
2019-04-08 12:00:00 11.8 6 Sudoeste 22 Sur 0.6 -- -- 85
2019-04-08 11:00:00 11.7 7 Sudoeste 18 Sudoeste 0.4 -- -- 86
2019-04-08 10:00:00 12.7 7 Oeste 17 Sudoeste 0 -- -- 75
2019-04-08 09:00:00 12.5 0 Calma 8 Noroeste 0 -- -- 69
2019-04-08 08:00:00 12.7 3 Este 14 Noroeste 0 -- -- 65
2019-04-08 07:00:00 12.6 6 Oeste 22 Oeste 0 -- -- 65
2019-04-08 06:00:00 13 5 Oeste 17 Sudoeste 0 -- -- 58
2019-04-08 05:00:00 12.8 4 Sudoeste 15 Sur 0 -- -- 56
2019-04-08 04:00:00 12.3 3 Noroeste 10 Sur 0 -- -- 57
2019-04-08 03:00:00 11.4 4 Norte 15 Sudoeste 0 -- -- 63
2019-04-08 02:00:00 11.2 5 Oeste 18 Sudoeste 0 -- -- 63
2019-04-08 01:00:00 10.5 2 Sudeste 12 Sudoeste 0 -- -- 67
2019-04-08 00:00:00 10.2 4 Oeste 7 Oeste 0 -- -- 74
2019-04-07 23:00:00 9.8 6 Oeste 9 Oeste 0 -- -- 81
2019-04-07 22:00:00 9.7 6 Oeste 9 Oeste 0 -- -- 83
2019-04-07 21:00:00 10.6 0 Calma 9 Nordeste 0 -- -- 78
2019-04-07 20:00:00 12.6 4 Este 11 Nordeste 0 -- -- 71
2019-04-07 19:00:00 13.6 5 Nordeste 13 Norte 0 -- -- 68
2019-04-07 18:00:00 13.7 4 Nordeste 11 Nordeste 0 -- -- 68
2019-04-07 17:00:00 14.1 5 Sudoeste 15 Sudoeste 0 -- -- 65
2019-04-07 16:00:00 13.4 9 Sudoeste 19 Oeste 0.2 -- -- 72
2019-04-07 15:00:00 10.9 5 Oeste 18 Sudoeste 0.6 -- -- 89
2019-04-07 14:00:00 9.2 7 Sudoeste 28 Oeste 1.2 -- -- 90
2019-04-07 13:00:00 8.9 9 Sudoeste 27 Oeste 0.8 -- -- 88
2019-04-07 12:00:00 8.5 13 Sudoeste 33 Sudoeste 1.4 -- -- 88
2019-04-07 11:00:00 8.2 11 Sudoeste 32 Sudoeste 0.4 -- -- 85
2019-04-07 10:00:00 8.4 9 Sudoeste 23 Oeste 0.2 -- -- 79
2019-04-07 09:00:00 8.5 10 Sudoeste 26 Oeste 0 -- -- 76
2019-04-07 08:00:00 8.3 9 Sudoeste 26 Oeste 0 -- -- 77
2019-04-07 07:00:00 8.3 11 Sudoeste 25 Sudoeste 0 -- -- 79
2019-04-07 06:00:00 8.3 7 Sudoeste 15 Sudoeste 0 -- -- 79
2019-04-07 05:00:00 7.9 7 Sudoeste 16 Sudoeste 0.2 -- -- 83
2019-04-07 04:00:00 7.7 8 Sudoeste 21 Oeste 0 -- -- 88
2019-04-07 03:00:00 7.4 6 Sudoeste 14 Sudoeste 0 -- -- 92
2019-04-07 02:00:00 7.3 3 Sudoeste 8 Oeste 0.2 -- -- 92
2019-04-07 01:00:00 7.4 0 Calma 9 Sur 0.2 -- -- 89
2019-04-07 00:00:00 7.5 7 Sudoeste 23 Sudoeste 2 -- -- 89
2019-04-06 23:00:00 9.1 13 Sudoeste 35 Sudoeste 0 -- -- 79
2019-04-06 22:00:00 10 14 Oeste 30 Sudoeste 0 -- -- 76
2019-04-06 21:00:00 11.5 2 Este 12 Nordeste 0 -- -- 70
2019-04-06 20:00:00 13.3 3 Nordeste 9 Este 0 -- -- 56
2019-04-06 19:00:00 14 3 Nordeste 15 Nordeste 0 -- -- 54
2019-04-06 18:00:00 15.5 6 Norte 25 Sudoeste 0 -- -- 56
2019-04-06 17:00:00 16.6 8 Oeste 33 Sudoeste 0 -- -- 42
2019-04-06 16:00:00 16.5 8 Sudoeste 34 Sudoeste 0 -- -- 41
2019-04-06 15:00:00 15.6 17 Oeste 37 Oeste 0 -- -- 40
2019-04-06 14:00:00 14.8 10 Sudoeste 30 Sudoeste 0 -- -- 45
2019-04-06 13:00:00 14.5 12 Sudoeste 31 Sudoeste 0 -- -- 48
2019-04-06 12:00:00 12.8 6 Sudoeste 18 Oeste 0 -- -- 58
2019-04-06 11:00:00 10.4 5 Sudoeste 14 Oeste 0 -- -- 67
2019-04-06 10:00:00 8.6 4 Oeste 14 Sudoeste 0 -- -- 76
2019-04-06 09:00:00 7.6 8 Oeste 14 Oeste 0 -- -- 85
2019-04-06 08:00:00 7.1 4 Oeste 16 Sudoeste 0 -- -- 87
2019-04-06 07:00:00 7.7 11 Sudoeste 22 Sudoeste 0 -- -- 84
2019-04-06 06:00:00 7.2 10 Sudoeste 31 Oeste 1.6 -- -- 92
2019-04-06 05:00:00 7 13 Oeste 24 Sudoeste 0 -- -- 93
2019-04-06 04:00:00 6.9 4 Oeste 8 Oeste 0 -- -- 93
2019-04-06 03:00:00 7.1 0 Calma 9 Oeste 0 -- -- 94
2019-04-06 02:00:00 7.1 5 Oeste 9 Oeste 0 -- -- 95
2019-04-06 01:00:00 7.1 6 Oeste 16 Oeste 0.4 -- -- 95
2019-04-06 00:00:00 7.1 6 Sudeste 9 Sudeste 0.2 -- -- 94
2019-04-05 23:00:00 7.3 0 Calma 6 Oeste 1 -- -- 93
2019-04-05 22:00:00 7.4 0 Calma 11 Sur 2.8 -- -- 90
2019-04-05 21:00:00 7.9 6 Sudoeste 23 Sudoeste 2.6 -- -- 87
2019-04-05 20:00:00 8 6 Sudoeste 13 Sudoeste 1 -- -- 90
2019-04-05 19:00:00 8 5 Sudoeste 33 Sudoeste 1.8 -- -- 89
2019-04-05 18:00:00 8.8 16 Sudoeste 41 Oeste 0 -- -- 82
2019-04-05 17:00:00 14.4 4 Sur 16 Sur 0 -- -- 52
2019-04-05 16:00:00 14.4 9 Sur 38 Sur 0 -- -- 52
2019-04-05 15:00:00 14.3 8 Sur 30 Sur 0 -- -- 53
2019-04-05 14:00:00 13.3 12 Sur 27 Sudeste 0 -- -- 56
2019-04-05 13:00:00 13.2 10 Sur 23 Sur 0 -- -- 54
2019-04-05 12:00:00 12.5 9 Sudeste 40 Sudeste 0 -- -- 57
2019-04-05 11:00:00 11.7 10 Sudeste 28 Sudeste 0 -- -- 57
2019-04-05 10:00:00 11.8 9 Sur 26 Sur 0 -- -- 55
2019-04-05 09:00:00 11.9 5 Sudeste 24 Sur 0 -- -- 52
2019-04-05 08:00:00 12.6 11 Sur 39 Sur 0 -- -- 46
2019-04-05 07:00:00 13 9 Sudeste 38 Sur 0 -- -- 42
2019-04-05 06:00:00 13.2 11 Sur 32 Sur 0 -- -- 39
2019-04-05 05:00:00 11.8 4 Sudoeste 13 Noroeste 0 -- -- 42
2019-04-05 04:00:00 12.3 4 Sudeste 13 Sur 0 -- -- 40
2019-04-05 03:00:00 12.6 4 Sudoeste 25 Sudeste 0 -- -- 44
2019-04-05 02:00:00 13 5 Sudoeste 19 Sudoeste 0 -- -- 42
2019-04-05 01:00:00 13.1 4 Sur 23 Sudeste 0 -- -- 40
2019-04-05 00:00:00 13.4 8 Sudeste 26 Sur 0 -- -- 38
2019-04-04 23:00:00 12.9 4 Sudeste 16 Sudeste 0 -- -- 43
2019-04-04 22:00:00 12.8 6 Sudeste 17 Sur 0 -- -- 43
2019-04-04 21:00:00 11 2 Sur 8 Sudoeste 0 -- -- 65
2019-04-04 20:00:00 11.8 0 Calma 4 Nordeste 0 -- -- 65
2019-04-04 19:00:00 12.5 2 Nordeste 12 Noroeste 0 -- -- 64
2019-04-04 18:00:00 12.3 6 Nordeste 17 Norte 0 -- -- 62
2019-04-04 17:00:00 14 5 Nordeste 15 Este 0 -- -- 54
2019-04-04 16:00:00 12.6 9 Nordeste 22 Este 0 -- -- 54
2019-04-04 15:00:00 13.4 7 Sur 21 Oeste 0 -- -- 48
2019-04-04 14:00:00 12.1 7 Sudoeste 23 Oeste 0 -- -- 58
2019-04-04 13:00:00 10.6 9 Oeste 29 Sudoeste 0 -- -- 64
2019-04-04 12:00:00 9.3 10 Sudoeste 24 Sudoeste 0 -- -- 65
2019-04-04 11:00:00 7.7 10 Sudoeste 31 Sudoeste 0 -- -- 70
2019-04-04 10:00:00 6.2 11 Sudoeste 26 Sudoeste 0 -- -- 77
2019-04-04 09:00:00 4.9 13 Sudoeste 27 Sudoeste 0 -- -- 81
2019-04-04 08:00:00 4 14 Sudoeste 29 Sur 0.2 -- -- 89
2019-04-04 07:00:00 3.5 12 Sudoeste 36 Sudoeste 1.4 -- -- 89
2019-04-04 06:00:00 4.8 16 Sudoeste 37 Sudoeste 0 -- -- 81
2019-04-04 05:00:00 4.7 15 Sudoeste 32 Oeste 0.2 -- -- 82
2019-04-04 04:00:00 4.3 17 Sudoeste 49 Oeste 0.2 -- -- 87
2019-04-04 03:00:00 4.5 15 Sudoeste 43 Sudoeste 0.6 -- -- 85
2019-04-04 02:00:00 4.2 10 Sudoeste 37 Oeste 1.2 -- -- 88
2019-04-04 01:00:00 4.1 13 Sudoeste 40 Oeste 0.6 -- -- 88
2019-04-04 00:00:00 3.9 19 Sudoeste 39 Sudoeste 0.4 -- -- 87
2019-04-03 23:00:00 4 19 Sudoeste 44 Sudoeste 0.6 -- -- 88
2019-04-03 22:00:00 4.2 18 Sudoeste 44 Sudoeste 1.4 -- -- 88
2019-04-03 21:00:00 5.5 18 Sudoeste 47 Sudoeste 1.6 -- -- 80
2019-04-03 20:00:00 6.9 17 Sudoeste 41 Oeste 0.2 -- -- 76
2019-04-03 19:00:00 6.8 15 Sudoeste 35 Sudoeste 0 -- -- 81
2019-04-03 18:00:00 6.3 9 Oeste 53 Oeste 0.4 -- -- 87
2019-04-03 17:00:00 7.5 10 Oeste 28 Oeste 0.2 -- -- 82
2019-04-03 16:00:00 5.6 14 Sudoeste 41 Oeste 2.2 -- -- 90
2019-04-03 15:00:00 6.3 9 Oeste 36 Noroeste 1.4 -- -- 91
2019-04-03 14:00:00 6.4 16 Noroeste 37 Noroeste 0.4 -- -- 86
2019-04-03 13:00:00 7.3 8 Sudoeste 41 Noroeste 1 -- -- 88
2019-04-03 12:00:00 6.7 17 Noroeste 41 Noroeste 0.8 -- -- 88
2019-04-03 11:00:00 7.4 9 Oeste 28 Noroeste 0.6 -- -- 85
2019-04-03 10:00:00 7 12 Sudoeste 28 Sudoeste 2.2 -- -- 90
2019-04-03 09:00:00 6.9 9 Oeste 29 Oeste 1.6 -- -- 92
2019-04-03 08:00:00 6.9 6 Sudoeste 30 Noroeste 3.4 -- -- 92
2019-04-03 07:00:00 7.6 9 Sudoeste 27 Sudoeste 1.4 -- -- 91
2019-04-03 06:00:00 8 11 Noroeste 37 Oeste 1.4 -- -- 87
2019-04-03 05:00:00 8.6 9 Sudoeste 23 Sudoeste 0 -- -- 82
2019-04-03 04:00:00 8.4 12 Sudoeste 26 Sudoeste 0.2 -- -- 83
2019-04-03 03:00:00 8.3 12 Sudoeste 26 Oeste 0.6 -- -- 92
2019-04-03 02:00:00 8.6 10 Sudoeste 29 Oeste 0.6 -- -- 91
2019-04-03 01:00:00 9 13 Sudoeste 28 Sudoeste 0.8 -- -- 90
2019-04-03 00:00:00 9.5 9 Sudoeste 20 Oeste 0.8 -- -- 89
2019-04-02 23:00:00 10.1 4 Noroeste 21 Noroeste 1.2 -- -- 91
2019-04-02 22:00:00 10.8 6 Sudoeste 14 Sudoeste 0.6 -- -- 91
2019-04-02 21:00:00 11.4 4 Sudoeste 13 Sudoeste 0.2 -- -- 87
2019-04-02 20:00:00 11.9 3 Oeste 20 Sudoeste 0 -- -- 80
2019-04-02 19:00:00 12.4 5 Oeste 15 Sudoeste 0 -- -- 78
2019-04-02 18:00:00 13 7 Oeste 20 Sudoeste 0 -- -- 73
2019-04-02 17:00:00 13.2 3 Noroeste 20 Oeste 0 -- -- 75
2019-04-02 16:00:00 13.3 8 Noroeste 21 Noroeste 0 -- -- 76
2019-04-02 15:00:00 14.1 6 Noroeste 19 Oeste 0 -- -- 72
2019-04-02 14:00:00 15.6 8 Noroeste 24 Sudoeste 0 -- -- 72
2019-04-02 13:00:00 13.7 10 Noroeste 26 Oeste 0 -- -- 79
2019-04-02 12:00:00 13.2 9 Oeste 23 Oeste 0 -- -- 79
2019-04-02 11:00:00 12.8 6 Oeste 25 Oeste 0 -- -- 80
2019-04-02 10:00:00 12.7 6 Oeste 16 Sudoeste 0 -- -- 84
2019-04-02 09:00:00 11.9 7 Sudoeste 16 Sudoeste 0 -- -- 83
2019-04-02 08:00:00 12.2 7 Sudoeste 14 Sudoeste 0 -- -- 81
2019-04-02 07:00:00 11.5 4 Oeste 11 Oeste 0 -- -- 88
2019-04-02 06:00:00 11.7 4 Sudoeste 14 Sudoeste 0 -- -- 87
2019-04-02 05:00:00 11.6 5 Sudoeste 15 Sudoeste 0 -- -- 92
2019-04-02 04:00:00 11.9 4 Oeste 13 Sudoeste 0.2 -- -- 91
2019-04-02 03:00:00 12.1 5 Sudoeste 13 Sudoeste 0 -- -- 90
2019-04-02 02:00:00 11.9 5 Sudoeste 10 Sudoeste 0 -- -- 89
2019-04-02 01:00:00 11.9 3 Oeste 5 Oeste 0 -- -- 87
2019-04-02 00:00:00 12.1 2 Oeste 4 Oeste 0 -- -- 86
2019-04-01 23:00:00 12.2 0 Calma 3 Oeste 0 -- -- 85
2019-04-01 22:00:00 12.5 0 Calma 8 Este 0 -- -- 83
2019-04-01 21:00:00 13 3 Nordeste 8 Nordeste 0 -- -- 79
2019-04-01 20:00:00 13.6 4 Nordeste 9 Norte 0 -- -- 74
2019-04-01 19:00:00 14.5 0 Calma 10 Norte 0 -- -- 75
2019-04-01 18:00:00 14.8 5 Norte 11 Norte 0 -- -- 78
2019-04-01 17:00:00 14.8 5 Norte 14 Nordeste 0 -- -- 75
2019-04-01 16:00:00 15.2 4 Norte 10 Nordeste 0 -- -- 80
2019-04-01 15:00:00 14.6 5 Noroeste 9 Norte 0 -- -- 82
2019-04-01 14:00:00 13.6 3 Noroeste 8 Noroeste 0 -- -- 87
2019-04-01 13:00:00 12.2 0 Calma -- -- -- -- -- 93
2019-04-01 12:00:00 11.8 0 Calma 5 Noroeste 0.4 -- -- 93
2019-04-01 11:00:00 11.2 0 Calma 4 Sudeste 0.2 -- -- 94
2019-04-01 10:00:00 10.6 0 Calma 5 Oeste 0.6 -- -- 94
2019-04-01 09:00:00 10.2 0 Calma 5 Sur 0.2 -- -- 94
2019-04-01 08:00:00 10.2 0 Calma 7 Sudoeste 0.2 -- -- 93
2019-04-01 07:00:00 10.3 0 Calma 7 Sudoeste 0.4 -- -- 92
2019-04-01 06:00:00 10.5 2 Noroeste 6 Sudoeste 0.6 -- -- 90
2019-04-01 05:00:00 10.8 3 Sudoeste 8 Noroeste 0.6 -- -- 88
2019-04-01 04:00:00 11.2 3 Sudoeste 6 Oeste 0.6 -- -- 83
2019-04-01 03:00:00 12.2 3 Noroeste 8 Noroeste 0.2 -- -- 74
2019-04-01 02:00:00 13.3 4 Oeste 6 Oeste 0 -- -- 63
2019-04-01 01:00:00 13.1 0 Calma 5 Noroeste 0 -- -- 65
2019-04-01 00:00:00 12.8 0 Calma 3 Sudeste 0 -- -- 70
2019-03-31 23:00:00 12.7 3 Oeste 4 Oeste 0 -- -- 75
2019-03-31 22:00:00 13.2 3 Oeste 5 Nordeste 0 -- -- 74
2019-03-31 21:00:00 13.9 0 Calma 7 Norte 0 -- -- 71
2019-03-31 20:00:00 15.4 3 Nordeste 11 Norte 0 -- -- 64
2019-03-31 19:00:00 16.2 4 Norte 14 Norte 0 -- -- 62
2019-03-31 18:00:00 17.2 5 Norte 15 Norte 0 -- -- 59
2019-03-31 17:00:00 17.9 6 Norte 15 Norte 0 -- -- 43
2019-03-31 16:00:00 17.4 5 Nordeste 16 Nordeste 0 -- -- 47
2019-03-31 15:00:00 17.4 6 Norte 16 Nordeste 0 -- -- 47
2019-03-31 14:00:00 18.4 5 Nordeste 16 Nordeste 0 -- -- 46
2019-03-31 13:00:00 19.4 4 Nordeste 10 Nordeste 0 -- -- 45
2019-03-31 12:00:00 16.8 4 Norte 9 Noroeste 0 -- -- 50
2019-03-31 11:00:00 13.8 6 Oeste 9 Oeste 0 -- -- 59
2019-03-31 10:00:00 12 4 Noroeste 6 Oeste 0 -- -- 66
2019-03-31 09:00:00 10.2 2 Oeste 6 Oeste 0 -- -- 65
2019-03-31 08:00:00 10.2 4 Oeste 5 Oeste 0 -- -- 65
2019-03-31 07:00:00 10.6 3 Sudoeste 4 Oeste 0 -- -- 61
2019-03-31 06:00:00 11.2 0 Calma 6 Oeste 0 -- -- 58
2019-03-31 05:00:00 11.7 3 Norte 5 Noroeste 0 -- -- 56
2019-03-31 03:00:00 13.9 0 Calma 11 Sudoeste 0 -- -- 47
2019-03-31 01:00:00 14.2 2 Sudoeste 10 Oeste 0 -- -- 47
2019-03-31 00:00:00 14.4 0 Calma 6 Noroeste 0 -- -- 44
2019-03-30 23:00:00 14.7 2 Nordeste 7 Oeste 0 -- -- 44
2019-03-30 22:00:00 13.9 4 Oeste 6 Oeste 0 -- -- 55
2019-03-30 21:00:00 14.4 4 Oeste 6 Oeste 0 -- -- 53
2019-03-30 20:00:00 15.4 5 Oeste 8 Oeste 0 -- -- 57
2019-03-30 19:00:00 18.2 3 Norte 9 Norte 0 -- -- 45
2019-03-30 18:00:00 19.9 4 Noroeste 13 Norte 0 -- -- 39
2019-03-30 17:00:00 20 6 Nordeste 14 Noroeste 0 -- -- 33
2019-03-30 16:00:00 20.7 6 Norte 17 Nordeste 0 -- -- 35
2019-03-30 15:00:00 21.9 6 Norte 17 Nordeste 0 -- -- 33
2019-03-30 14:00:00 22.1 8 Norte 14 Norte 0 -- -- 34
2019-03-30 13:00:00 22 7 Sudoeste 16 Oeste 0 -- -- 31
2019-03-30 12:00:00 21.3 4 Este 12 Sur 0 -- -- 31
2019-03-30 11:00:00 19.3 4 Sudeste 14 Sudeste 0 -- -- 33
2019-03-30 10:00:00 17.1 3 Este 13 Sudeste 0 -- -- 37
2019-03-30 09:00:00 15.5 3 Este 10 Nordeste 0 -- -- 39
2019-03-30 08:00:00 13.6 4 Norte 13 Sudeste 0 -- -- 41
2019-03-30 07:00:00 14.3 7 Sur 20 Sudeste 0 -- -- 38
2019-03-30 06:00:00 15 9 Sur 34 Sur 0 -- -- 35
2019-03-30 05:00:00 15.4 9 Sudeste 31 Sur 0 -- -- 37
2019-03-30 04:00:00 15.7 10 Sudeste 31 Sur 0 -- -- 38
2019-03-30 03:00:00 16.1 12 Sudeste 31 Sur 0 -- -- 39
2019-03-30 02:00:00 16.1 9 Sudeste 27 Sur 0 -- -- 40
2019-03-30 01:00:00 16.7 9 Sudeste 26 Sur 0 -- -- 38
2019-03-30 00:00:00 17.3 11 Sudeste 31 Sur 0 -- -- 36
2019-03-29 23:00:00 17.7 11 Sur 31 Sur 0 -- -- 34
2019-03-29 22:00:00 17.9 8 Sudeste 21 Sur 0 -- -- 33
2019-03-29 21:00:00 18.6 10 Sur 30 Sudeste 0 -- -- 32
2019-03-29 20:00:00 19.1 8 Sudeste 23 Sur 0 -- -- 31
2019-03-29 19:00:00 20.4 6 Sudeste 17 Sudeste 0 -- -- 28
2019-03-29 18:00:00 21.7 5 Sudeste 21 Sur 0 -- -- 28
2019-03-29 17:00:00 22.3 3 Oeste 14 Sudeste 0 -- -- 29
2019-03-29 16:00:00 22.6 5 Sur 30 Sur 0 -- -- 28
2019-03-29 15:00:00 22.1 6 Sur 16 Sudeste 0 -- -- 30
2019-03-29 14:00:00 18.6 7 Norte 14 Norte 0 -- -- 54
2019-03-29 13:00:00 16.8 7 Norte 13 Norte 0 -- -- 63
2019-03-29 12:00:00 15 5 Norte 11 Norte 0 -- -- 66
2019-03-29 11:00:00 13.2 6 Norte 10 Noroeste 0 -- -- 66
2019-03-29 10:00:00 10 3 Noroeste 6 Oeste 0 -- -- 70
2019-03-29 09:00:00 7.6 2 Oeste 5 Oeste 0 -- -- 80
2019-03-29 08:00:00 6.7 0 Calma 5 Oeste 0 -- -- 77
2019-03-29 07:00:00 6 0 Calma 3 Este 0 -- -- 77
2019-03-29 06:00:00 6.1 0 Calma 3 Sudeste 0 -- -- 76
2019-03-29 05:00:00 6.2 0 Calma 4 Nordeste 0 -- -- 76
2019-03-29 04:00:00 6.7 0 Calma 7 Oeste 0 -- -- 73
2019-03-29 03:00:00 7 3 Sudeste 5 Oeste 0 -- -- 74
2019-03-29 02:00:00 7.3 3 Noroeste 5 Noroeste 0 -- -- 74
2019-03-29 01:00:00 8.2 0 Calma 15 Oeste 0 -- -- 72
2019-03-29 00:00:00 9.2 9 Sudoeste 21 Sudoeste 0 -- -- 72
2019-03-28 23:00:00 9.4 11 Sudoeste 21 Sudoeste 0 -- -- 76
2019-03-28 22:00:00 9.9 6 Sudoeste 18 Sudoeste 0 -- -- 69
2019-03-28 21:00:00 9.9 9 Sudoeste 16 Sudoeste 0 -- -- 80
2019-03-28 20:00:00 10.4 7 Sudoeste 15 Sudoeste 0 -- -- 78
2019-03-28 19:00:00 12.4 0 Calma 10 Norte 0 -- -- 66
2019-03-28 18:00:00 13.1 5 Norte 14 Este 0 -- -- 64
2019-03-28 17:00:00 13.9 4 Este 14 Nordeste 0 -- -- 60
2019-03-28 16:00:00 14.9 5 Nordeste 15 Nordeste 0 -- -- 54
2019-03-28 15:00:00 15.6 5 Nordeste 18 Noroeste 0 -- -- 50
2019-03-28 14:00:00 15.3 6 Norte 19 Norte 0 -- -- 52
2019-03-28 13:00:00 14.8 6 Norte 15 Norte 0 -- -- 51
2019-03-28 12:00:00 14.6 6 Noroeste 15 Oeste 0 -- -- 60
2019-03-28 11:00:00 13 6 Oeste 22 Sudoeste 0 -- -- 63
2019-03-28 10:00:00 11 9 Sudoeste 28 Oeste 0 -- -- 74
2019-03-28 09:00:00 10.1 13 Oeste 24 Oeste 0 -- -- 81
2019-03-28 08:00:00 9.5 10 Sudoeste 20 Sudoeste 0 -- -- 82
2019-03-28 07:00:00 9.5 11 Sudoeste 21 Sudoeste 0 -- -- 82
2019-03-28 06:00:00 9.5 9 Sudoeste 21 Sudoeste 0 -- -- 81
2019-03-28 05:00:00 9.7 7 Sudoeste 18 Sudoeste 0 -- -- 82
2019-03-28 04:00:00 9.9 11 Sudoeste 19 Sudoeste 0 -- -- 84
2019-03-28 03:00:00 9.9 9 Sudoeste 19 Sudoeste 0 -- -- 83
2019-03-28 02:00:00 9.8 10 Sudoeste 20 Sudoeste 0 -- -- 82
2019-03-28 01:00:00 9.9 11 Sudoeste 22 Sudoeste 0 -- -- 81
2019-03-28 00:00:00 9.9 13 Sudoeste 24 Sudoeste 0 -- -- 81
2019-03-27 23:00:00 9.9 12 Sudoeste 26 Sudoeste 0 -- -- 78
2019-03-27 22:00:00 9.7 12 Sudoeste 21 Sudoeste 0 -- -- 76
2019-03-27 21:00:00 9.7 9 Sudoeste 18 Sudoeste 0 -- -- 76
2019-03-27 20:00:00 9.7 8 Sudoeste 17 Sudoeste 0 -- -- 74
2019-03-27 19:00:00 11.5 4 Oeste 15 Norte 0 -- -- 64
2019-03-27 18:00:00 11.8 9 Noroeste 19 Norte 0 -- -- 64
2019-03-27 17:00:00 12.1 8 Noroeste 21 Noroeste 0 -- -- 61
2019-03-27 16:00:00 12.5 9 Norte 20 Norte 0 -- -- 58
2019-03-27 15:00:00 13.6 9 Norte 22 Norte 0 -- -- 47
2019-03-27 14:00:00 13.7 7 Norte 18 Nordeste 0 -- -- 45
2019-03-27 13:00:00 13.3 7 Norte 17 Norte 0 -- -- 46
2019-03-27 12:00:00 12.5 6 Norte 13 Norte 0 -- -- 45
2019-03-27 11:00:00 11.2 3 Norte 8 Noroeste 0 -- -- 58
2019-03-27 10:00:00 8.5 2 Noroeste 8 Noroeste 0 -- -- 67
2019-03-27 09:00:00 6.9 4 Oeste 7 Oeste 0 -- -- 73
2019-03-27 08:00:00 5.4 3 Oeste 8 Oeste 0 -- -- 76
2019-03-27 07:00:00 5.4 2 Noroeste 11 Sudoeste 0 -- -- 74
2019-03-27 06:00:00 5.7 6 Oeste 13 Oeste 0 -- -- 70
2019-03-27 05:00:00 6.1 2 Oeste 4 Noroeste 0 -- -- 69
2019-03-27 04:00:00 6.8 2 Oeste 6 Oeste 0 -- -- 66
2019-03-27 03:00:00 7.1 2 Norte 14 Nordeste 0 -- -- 66
2019-03-27 02:00:00 7.7 4 Este 18 Este 0 -- -- 65
2019-03-27 01:00:00 8 3 Este 11 Nordeste 0 -- -- 68
2019-03-27 00:00:00 8.3 4 Este 10 Nordeste 0 -- -- 75